createdAt,value
2023-02-21T00:02:17.960Z,69.78
2023-02-21T00:05:03.817Z,69.75
2023-02-21T00:07:49.784Z,69.71
2023-02-21T00:10:36.733Z,69.91
2023-02-21T00:13:22.645Z,70.02
2023-02-21T00:16:08.146Z,70.04
2023-02-21T00:18:55.135Z,70.12
2023-02-21T00:21:41.181Z,70.28
2023-02-21T00:24:27.966Z,70.20
2023-02-21T00:27:13.930Z,70.54
2023-02-21T00:29:59.321Z,70.40
2023-02-21T00:32:45.096Z,70.52
2023-02-21T00:35:30.570Z,70.71
2023-02-21T00:38:16.132Z,70.76
2023-02-21T00:41:02.129Z,70.69
2023-02-21T00:43:52.685Z,70.60
2023-02-21T00:46:38.951Z,70.54
2023-02-21T00:49:24.798Z,70.18
2023-02-21T00:52:10.451Z,70.29
2023-02-21T00:54:56.924Z,70.26
2023-02-21T00:57:42.437Z,70.03
2023-02-21T01:00:36.149Z,70.00
2023-02-21T01:03:22.299Z,69.88
2023-02-21T01:06:08.278Z,70.09
2023-02-21T01:08:53.877Z,70.37
2023-02-21T01:11:41.031Z,70.30
2023-02-21T01:14:28.501Z,70.36
2023-02-21T01:17:14.670Z,70.18
2023-02-21T01:20:01.152Z,70.23
2023-02-21T01:22:47.764Z,70.13
2023-02-21T01:25:33.816Z,70.37
2023-02-21T01:28:20.462Z,70.40
2023-02-21T01:31:06.018Z,70.35
2023-02-21T01:33:56.100Z,70.18
2023-02-21T01:36:41.882Z,70.23
2023-02-21T01:39:27.850Z,70.17
2023-02-21T01:42:13.398Z,70.04
2023-02-21T01:45:01.499Z,70.13
2023-02-21T01:47:51.349Z,70.14
2023-02-21T01:50:42.492Z,70.28
2023-02-21T01:53:32.591Z,70.58
2023-02-21T01:56:19.628Z,70.20
2023-02-21T01:59:08.795Z,70.46
2023-02-21T02:02:22.526Z,70.74
2023-02-21T02:05:10.370Z,70.47
2023-02-21T02:07:56.561Z,70.37
2023-02-21T02:10:42.466Z,70.60
2023-02-21T02:14:02.281Z,70.44
2023-02-21T02:16:37.890Z,70.51
2023-02-21T02:19:23.154Z,70.64
2023-02-21T02:22:21.756Z,70.53
2023-02-21T02:25:12.496Z,70.27
2023-02-21T02:28:21.279Z,70.25
2023-02-21T02:31:05.643Z,70.26
2023-02-21T02:34:10.244Z,70.33
2023-02-21T02:37:08.201Z,70.14
2023-02-21T02:39:47.383Z,70.07
2023-02-21T02:42:40.450Z,69.58
2023-02-21T02:45:26.568Z,69.79
2023-02-21T02:48:12.652Z,69.74
2023-02-21T02:50:40.913Z,69.62
2023-02-21T02:53:08.558Z,69.69
2023-02-21T02:55:59.002Z,69.72
2023-02-21T02:58:31.203Z,70.19
2023-02-21T03:01:19.022Z,69.74
2023-02-21T03:03:54.923Z,69.48
2023-02-21T03:06:24.989Z,69.50
2023-02-21T03:09:12.844Z,69.58
2023-02-21T03:11:53.319Z,69.58
2023-02-21T03:14:26.664Z,69.51
2023-02-21T03:16:57.648Z,69.87
2023-02-21T03:19:33.203Z,69.99
2023-02-21T03:22:05.578Z,70.23
2023-02-21T03:24:34.865Z,70.17
2023-02-21T03:27:05.144Z,69.99
2023-02-21T03:29:52.505Z,70.54
2023-02-21T03:32:27.702Z,70.40
2023-02-21T03:34:56.079Z,70.79
2023-02-21T03:37:34.983Z,70.86
2023-02-21T03:40:04.087Z,70.99
2023-02-21T03:42:33.156Z,71.09
2023-02-21T03:45:00.544Z,71.16
2023-02-21T03:47:30.276Z,71.23
2023-02-21T03:49:57.764Z,71.28
2023-02-21T03:52:24.919Z,71.59
2023-02-21T03:54:52.339Z,71.95
2023-02-21T03:57:21.809Z,71.93
2023-02-21T03:59:50.355Z,71.92
2023-02-21T04:02:17.918Z,71.79
2023-02-21T04:04:45.859Z,71.83
2023-02-21T04:07:18.413Z,72.13
2023-02-21T04:09:46.389Z,72.29
2023-02-21T04:12:17.387Z,72.37
2023-02-21T04:14:44.375Z,72.53
2023-02-21T04:17:11.825Z,72.78
2023-02-21T04:19:39.473Z,72.88
2023-02-21T04:22:07.374Z,73.07
2023-02-21T04:24:35.704Z,73.08
2023-02-21T04:27:02.578Z,73.38
2023-02-21T04:29:33.566Z,73.58
2023-02-21T04:32:00.802Z,73.17
2023-02-21T04:34:27.940Z,73.10
2023-02-21T04:36:55.183Z,73.02
2023-02-21T04:39:22.429Z,73.08
2023-02-21T04:41:50.572Z,73.27
2023-02-21T04:44:18.327Z,73.22
2023-02-21T04:46:45.344Z,73.49
2023-02-21T04:49:13.393Z,73.49
2023-02-21T04:51:40.389Z,73.97
2023-02-21T04:54:07.910Z,74.57
2023-02-21T04:56:35.038Z,74.26
2023-02-21T04:59:01.900Z,74.61
2023-02-21T05:01:31.290Z,74.74
2023-02-21T05:03:59.733Z,74.89
2023-02-21T05:06:28.261Z,75.06
2023-02-21T05:08:55.368Z,74.70
2023-02-21T05:11:23.182Z,74.92
2023-02-21T05:13:50.594Z,75.30
2023-02-21T05:16:18.799Z,75.14
2023-02-21T05:18:47.453Z,74.94
2023-02-21T05:21:16.783Z,75.05
2023-02-21T05:23:55.984Z,74.90
2023-02-21T05:26:26.497Z,75.22
2023-02-21T05:28:53.665Z,75.29
2023-02-21T05:31:21.646Z,75.24
2023-02-21T05:33:48.672Z,75.25
2023-02-21T05:36:15.635Z,74.94
2023-02-21T05:38:54.439Z,74.81
2023-02-21T05:41:21.736Z,74.78
2023-02-21T05:43:49.780Z,74.83
2023-02-21T05:46:27.815Z,74.75
2023-02-21T05:48:56.115Z,74.51
2023-02-21T05:51:23.454Z,74.46
2023-02-21T05:53:50.849Z,74.45
2023-02-21T05:56:18.751Z,74.36
2023-02-21T05:58:45.796Z,74.42
2023-02-21T06:01:12.977Z,74.39
2023-02-21T06:03:40.156Z,73.69
2023-02-21T06:06:07.189Z,73.48
2023-02-21T06:08:43.058Z,73.86
2023-02-21T06:11:10.634Z,73.31
2023-02-21T06:13:37.504Z,72.88
2023-02-21T06:16:04.816Z,72.80
2023-02-21T06:18:31.705Z,71.57
2023-02-21T06:20:58.633Z,71.09
2023-02-21T06:23:25.837Z,70.38
2023-02-21T06:25:52.927Z,69.96
2023-02-21T06:28:19.931Z,69.87
2023-02-21T06:30:46.904Z,69.53
2023-02-21T06:33:13.938Z,68.98
2023-02-21T06:35:40.794Z,67.71
2023-02-21T06:38:07.889Z,67.49
2023-02-21T06:40:34.819Z,67.89
2023-02-21T06:43:01.781Z,66.77
2023-02-21T06:45:28.638Z,66.52
2023-02-21T06:47:56.042Z,65.74
2023-02-21T06:50:22.887Z,65.49
2023-02-21T06:52:49.918Z,64.79
2023-02-21T06:55:25.274Z,64.89
2023-02-21T06:57:52.676Z,64.78
2023-02-21T07:00:19.647Z,64.31
2023-02-21T07:02:46.671Z,64.49
2023-02-21T07:05:13.618Z,64.13
2023-02-21T07:07:40.601Z,63.53
2023-02-21T07:10:07.808Z,63.28
2023-02-21T07:12:34.864Z,62.48
2023-02-21T07:15:01.995Z,61.59
2023-02-21T07:17:30.833Z,61.52
2023-02-21T07:19:57.853Z,61.48
2023-02-21T07:22:26.265Z,60.37
2023-02-21T07:24:54.046Z,60.04
2023-02-21T07:27:21.869Z,60.64
2023-02-21T07:29:49.543Z,60.09
2023-02-21T07:32:17.423Z,60.37
2023-02-21T07:34:44.764Z,60.22
2023-02-21T07:37:12.223Z,58.82
2023-02-21T07:39:39.243Z,58.80
2023-02-21T07:42:08.055Z,58.93
2023-02-21T07:44:35.058Z,58.36
2023-02-21T07:47:02.612Z,58.70
2023-02-21T07:49:29.570Z,58.56
2023-02-21T07:51:56.517Z,57.88
2023-02-21T07:54:24.753Z,58.22
2023-02-21T07:56:52.280Z,57.60
2023-02-21T07:59:19.402Z,57.90
2023-02-21T08:01:47.879Z,56.83
2023-02-21T08:04:15.180Z,56.84
2023-02-21T08:06:42.110Z,56.68
2023-02-21T08:09:09.009Z,56.75
2023-02-21T08:11:36.783Z,56.84
2023-02-21T08:14:04.595Z,56.84
2023-02-21T08:16:34.499Z,57.38
2023-02-21T08:19:01.912Z,57.32
2023-02-21T08:21:28.905Z,56.87
2023-02-21T08:23:56.199Z,57.15
2023-02-21T08:26:23.115Z,57.29
2023-02-21T08:28:50.056Z,57.27
2023-02-21T08:31:17.187Z,56.99
2023-02-21T08:33:45.281Z,56.82
2023-02-21T08:36:12.710Z,56.31
2023-02-21T08:38:40.053Z,56.15
2023-02-21T08:41:07.150Z,55.21
2023-02-21T08:43:34.221Z,54.93
2023-02-21T08:46:02.778Z,54.03
2023-02-21T08:48:29.778Z,54.09
2023-02-21T08:50:56.978Z,54.21
2023-02-21T08:53:24.078Z,53.55
2023-02-21T08:55:51.478Z,53.73
2023-02-21T08:58:18.454Z,53.81
2023-02-21T09:00:45.669Z,53.64
2023-02-21T09:03:12.948Z,52.62
2023-02-21T09:05:40.037Z,53.02
2023-02-21T09:08:10.244Z,52.61
2023-02-21T09:10:37.971Z,53.31
2023-02-21T09:13:05.103Z,53.21
2023-02-21T09:15:32.058Z,53.32
2023-02-21T09:18:00.833Z,53.05
2023-02-21T09:20:27.775Z,52.55
2023-02-21T09:22:54.953Z,52.36
2023-02-21T09:25:24.785Z,51.85
2023-02-21T09:27:54.402Z,51.73
2023-02-21T09:30:26.455Z,50.96
2023-02-21T09:32:54.937Z,50.84
2023-02-21T09:35:22.967Z,49.79
2023-02-21T09:37:49.992Z,50.57
2023-02-21T09:40:38.688Z,50.15
2023-02-21T09:43:11.836Z,49.31
2023-02-21T09:45:38.970Z,48.19
2023-02-21T09:48:11.840Z,48.13
2023-02-21T09:50:46.657Z,47.62
2023-02-21T09:53:19.337Z,47.11
2023-02-21T09:55:48.304Z,46.81
2023-02-21T09:58:19.986Z,45.82
2023-02-21T10:00:47.951Z,45.40
2023-02-21T10:03:23.672Z,45.12
2023-02-21T10:05:56.592Z,43.73
2023-02-21T10:08:42.024Z,41.43
2023-02-21T10:11:54.072Z,42.54
2023-02-21T10:14:30.132Z,42.70
2023-02-21T10:17:22.922Z,42.78
2023-02-21T10:19:54.984Z,42.40
2023-02-21T10:22:27.202Z,42.64
2023-02-21T10:24:54.522Z,41.62
2023-02-21T10:27:24.857Z,40.69
2023-02-21T10:30:01.505Z,40.42
2023-02-21T10:32:32.303Z,39.64
2023-02-21T10:34:59.846Z,39.04
2023-02-21T10:37:45.054Z,37.65
2023-02-21T10:40:36.807Z,38.38
2023-02-21T10:43:18.983Z,33.90
2023-02-21T10:45:54.189Z,32.54
2023-02-21T10:48:26.104Z,31.31
2023-02-21T10:51:05.157Z,30.10
2023-02-21T10:53:40.508Z,29.76
2023-02-21T10:56:19.883Z,29.99
2023-02-21T10:58:52.979Z,30.24
2023-02-21T11:01:44.911Z,30.26
2023-02-21T11:04:20.928Z,29.29
2023-02-21T11:06:54.782Z,29.26
2023-02-21T11:09:30.781Z,28.73
2023-02-21T11:12:06.696Z,29.26
2023-02-21T11:14:35.359Z,28.94
2023-02-21T11:17:13.894Z,29.03
2023-02-21T11:19:53.344Z,29.46
2023-02-21T11:22:45.604Z,28.62
2023-02-21T11:25:24.761Z,28.57
2023-02-21T11:28:20.382Z,28.22
2023-02-21T11:30:50.396Z,28.25
2023-02-21T11:33:22.404Z,28.50
2023-02-21T11:35:52.075Z,28.27
2023-02-21T11:38:43.608Z,28.04
2023-02-21T11:41:28.687Z,28.55
2023-02-21T11:43:57.474Z,28.75
2023-02-21T11:46:46.418Z,29.07
2023-02-21T11:49:32.764Z,29.04
2023-02-21T11:52:04.861Z,28.86
2023-02-21T11:54:32.269Z,28.71
2023-02-21T11:57:18.162Z,28.91
2023-02-21T12:00:13.895Z,28.35
2023-02-21T12:02:40.853Z,28.59
2023-02-21T12:05:32.810Z,29.53
2023-02-21T12:08:24.679Z,28.90
2023-02-21T12:11:16.369Z,28.70
2023-02-21T12:14:21.489Z,29.36
2023-02-21T12:17:12.351Z,29.13
2023-02-21T12:19:40.160Z,28.87
2023-02-21T12:22:22.398Z,29.42
2023-02-21T12:25:03.957Z,28.64
2023-02-21T12:27:42.869Z,29.04
2023-02-21T12:30:36.761Z,28.79
2023-02-21T12:33:16.320Z,28.85
2023-02-21T12:36:15.602Z,29.74
2023-02-21T12:38:53.995Z,29.31
2023-02-21T12:41:26.786Z,28.98
2023-02-21T12:44:01.557Z,29.04
2023-02-21T12:46:37.688Z,29.47
2023-02-21T12:49:16.987Z,29.55
2023-02-21T12:52:11.229Z,29.60
2023-02-21T12:54:49.090Z,29.29
2023-02-21T12:57:21.499Z,29.55
2023-02-21T13:00:00.715Z,29.26
2023-02-21T13:02:40.212Z,29.24
2023-02-21T13:05:13.811Z,29.75
2023-02-21T13:07:52.440Z,29.42
2023-02-21T13:10:24.760Z,29.26
2023-02-21T13:13:04.434Z,29.77
2023-02-21T13:15:32.044Z,29.60
2023-02-21T13:18:05.941Z,29.19
2023-02-21T13:20:41.234Z,29.31
2023-02-21T13:24:02.712Z,29.73
2023-02-21T13:27:06.680Z,28.74
2023-02-21T13:29:38.928Z,28.73
2023-02-21T13:32:09.529Z,29.52
2023-02-21T13:35:00.834Z,28.95
2023-02-21T13:37:34.192Z,28.59
2023-02-21T13:40:22.170Z,29.12
2023-02-21T13:42:58.842Z,28.55
2023-02-21T13:45:26.788Z,28.61
2023-02-21T13:47:53.696Z,28.93
2023-02-21T13:50:39.316Z,28.49
2023-02-21T13:54:03.519Z,28.70
2023-02-21T13:56:43.204Z,28.35
2023-02-21T13:59:34.771Z,28.31
2023-02-21T14:02:22.933Z,28.46
2023-02-21T14:05:01.493Z,28.72
2023-02-21T14:07:40.412Z,29.12
2023-02-21T14:10:31.825Z,28.19
2023-02-21T14:13:03.074Z,28.62
2023-02-21T14:15:42.269Z,28.79
2023-02-21T14:18:29.931Z,28.99
2023-02-21T14:20:58.221Z,28.87
2023-02-21T14:23:41.417Z,28.69
2023-02-21T14:26:37.353Z,28.24
2023-02-21T14:29:07.411Z,28.68
2023-02-21T14:31:56.178Z,28.43
2023-02-21T14:34:35.288Z,28.17
2023-02-21T14:37:10.152Z,27.95
2023-02-21T14:39:40.967Z,27.68
2023-02-21T14:42:35.535Z,27.59
2023-02-21T14:45:11.541Z,27.66
2023-02-21T14:47:59.677Z,27.25
2023-02-21T14:50:45.055Z,27.90
2023-02-21T14:53:30.761Z,27.56
2023-02-21T14:56:07.276Z,27.93
2023-02-21T14:58:43.546Z,28.16
2023-02-21T15:01:48.162Z,27.76
2023-02-21T15:04:26.446Z,27.90
2023-02-21T15:07:18.860Z,28.35
2023-02-21T15:10:28.487Z,28.31
2023-02-21T15:13:01.335Z,28.63
2023-02-21T15:15:42.507Z,28.29
2023-02-21T15:18:24.054Z,28.25
2023-02-21T15:21:05.722Z,28.75
2023-02-21T15:23:33.580Z,28.65
2023-02-21T15:26:16.254Z,28.35
2023-02-21T15:28:43.436Z,28.83
2023-02-21T15:31:12.837Z,28.88
2023-02-21T15:33:42.668Z,28.79
2023-02-21T15:36:20.623Z,28.78
2023-02-21T15:38:52.207Z,29.06
2023-02-21T15:41:31.305Z,28.72
2023-02-21T15:44:01.390Z,29.07
2023-02-21T15:46:35.329Z,29.42
2023-02-21T15:49:04.817Z,29.60
2023-02-21T15:51:32.178Z,30.21
2023-02-21T15:54:09.574Z,30.11
2023-02-21T15:56:36.484Z,29.71
2023-02-21T15:59:27.218Z,30.26
2023-02-21T16:02:09.529Z,30.53
2023-02-21T16:04:39.192Z,30.86
2023-02-21T16:07:07.322Z,30.50
2023-02-21T16:09:36.342Z,31.68
2023-02-21T16:12:12.964Z,31.55
2023-02-21T16:14:47.621Z,31.59
2023-02-21T16:17:34.942Z,32.41
2023-02-21T16:20:15.110Z,32.67
2023-02-21T16:23:06.225Z,31.59
2023-02-21T16:25:33.451Z,32.29
2023-02-21T16:28:01.323Z,32.32
2023-02-21T16:30:32.244Z,32.54
2023-02-21T16:33:03.403Z,32.80
2023-02-21T16:35:31.470Z,33.27
2023-02-21T16:37:59.853Z,33.65
2023-02-21T16:40:33.453Z,33.58
2023-02-21T16:43:02.957Z,33.92
2023-02-21T16:45:31.302Z,33.87
2023-02-21T16:48:02.107Z,33.53
2023-02-21T16:50:38.568Z,33.82
2023-02-21T16:53:06.062Z,34.40
2023-02-21T16:55:33.080Z,34.06
2023-02-21T16:58:03.403Z,35.00
2023-02-21T17:00:31.515Z,34.31
2023-02-21T17:02:58.441Z,34.47
2023-02-21T17:05:25.668Z,34.58
2023-02-21T17:07:57.561Z,33.35
2023-02-21T17:10:24.907Z,34.25
2023-02-21T17:12:51.872Z,32.90
2023-02-21T17:15:21.773Z,33.02
2023-02-21T17:17:53.534Z,33.66
2023-02-21T17:20:22.940Z,33.00
2023-02-21T17:22:50.781Z,33.31
2023-02-21T17:25:18.981Z,33.03
2023-02-21T17:27:46.168Z,34.73
2023-02-21T17:30:14.308Z,35.03
2023-02-21T17:32:42.034Z,35.48
2023-02-21T17:35:10.464Z,36.13
2023-02-21T17:37:37.729Z,36.19
2023-02-21T17:40:05.218Z,36.36
2023-02-21T17:42:32.121Z,37.41
2023-02-21T17:45:00.220Z,37.47
2023-02-21T17:47:27.498Z,37.18
2023-02-21T17:50:00.360Z,37.13
2023-02-21T17:52:31.627Z,37.83
2023-02-21T17:54:58.645Z,38.58
2023-02-21T17:57:25.782Z,39.67
2023-02-21T17:59:52.756Z,38.96
2023-02-21T18:02:20.918Z,39.17
2023-02-21T18:04:49.697Z,39.92
2023-02-21T18:07:16.910Z,40.92
2023-02-21T18:09:46.762Z,40.85
2023-02-21T18:12:13.878Z,39.51
2023-02-21T18:14:40.768Z,39.37
2023-02-21T18:17:07.696Z,40.39
2023-02-21T18:19:34.691Z,39.66
2023-02-21T18:22:06.326Z,40.22
2023-02-21T18:24:33.311Z,39.59
2023-02-21T18:27:00.246Z,39.47
2023-02-21T18:29:27.228Z,39.83
2023-02-21T18:31:54.703Z,39.75
2023-02-21T18:34:22.990Z,39.25
2023-02-21T18:36:52.161Z,39.85
2023-02-21T18:39:22.064Z,39.86
2023-02-21T18:41:49.415Z,40.54
2023-02-21T18:44:16.588Z,40.59
2023-02-21T18:46:54.146Z,40.04
2023-02-21T18:49:25.206Z,39.54
2023-02-21T18:51:53.896Z,39.63
2023-02-21T18:54:21.380Z,41.09
2023-02-21T18:56:51.841Z,39.28
2023-02-21T18:59:22.384Z,39.72
2023-02-21T19:01:51.211Z,39.51
2023-02-21T19:04:19.405Z,40.49
2023-02-21T19:06:46.806Z,39.06
2023-02-21T19:09:14.032Z,39.31
2023-02-21T19:11:41.228Z,39.91
2023-02-21T19:14:08.889Z,40.42
2023-02-21T19:16:36.012Z,40.02
2023-02-21T19:19:03.924Z,39.18
2023-02-21T19:21:31.277Z,39.22
2023-02-21T19:23:58.611Z,39.86
2023-02-21T19:26:29.930Z,39.82
2023-02-21T19:28:57.600Z,39.64
2023-02-21T19:31:24.799Z,40.24
2023-02-21T19:33:51.933Z,39.92
2023-02-21T19:36:21.648Z,41.20
2023-02-21T19:38:49.331Z,40.61
2023-02-21T19:41:18.098Z,42.54
2023-02-21T19:43:45.719Z,41.65
2023-02-21T19:46:27.826Z,41.01
2023-02-21T19:48:54.894Z,41.01
2023-02-21T19:51:24.528Z,41.26
2023-02-21T19:53:51.840Z,41.43
2023-02-21T19:56:18.813Z,43.33
2023-02-21T19:58:48.827Z,43.19
2023-02-21T20:01:16.755Z,42.90
2023-02-21T20:03:46.581Z,42.25
2023-02-21T20:06:13.561Z,43.34
2023-02-21T20:08:40.612Z,43.86
2023-02-21T20:11:07.662Z,43.55
2023-02-21T20:13:35.865Z,43.84
2023-02-21T20:16:02.967Z,44.35
2023-02-21T20:18:30.243Z,43.90
2023-02-21T20:20:57.282Z,45.19
2023-02-21T20:23:24.199Z,44.92
2023-02-21T20:25:51.978Z,45.18
2023-02-21T20:28:20.068Z,45.20
2023-02-21T20:30:47.421Z,45.38
2023-02-21T20:33:15.502Z,45.68
2023-02-21T20:35:43.976Z,45.68
2023-02-21T20:38:10.939Z,45.75
2023-02-21T20:40:38.013Z,46.13
2023-02-21T20:43:04.973Z,47.34
2023-02-21T20:45:32.083Z,47.16
2023-02-21T20:47:59.050Z,46.50
2023-02-21T20:50:26.576Z,47.40
2023-02-21T20:52:54.633Z,47.34
2023-02-21T20:55:22.592Z,48.37
2023-02-21T20:57:49.952Z,47.55
2023-02-21T21:00:18.740Z,47.90
2023-02-21T21:02:45.868Z,47.42
2023-02-21T21:05:18.364Z,48.91
2023-02-21T21:07:46.564Z,48.57
2023-02-21T21:10:16.005Z,48.38
2023-02-21T21:12:43.915Z,48.41
2023-02-21T21:15:14.337Z,50.26
2023-02-21T21:17:41.989Z,49.93
2023-02-21T21:20:17.744Z,49.04
2023-02-21T21:22:48.114Z,49.05
2023-02-21T21:25:17.205Z,49.17
2023-02-21T21:27:44.858Z,49.03
2023-02-21T21:30:18.342Z,50.10
2023-02-21T21:32:47.185Z,48.90
2023-02-21T21:35:17.175Z,49.21
2023-02-21T21:37:44.272Z,49.94
2023-02-21T21:40:15.689Z,48.82
2023-02-21T21:42:45.036Z,48.97
2023-02-21T21:45:18.480Z,49.55
2023-02-21T21:47:47.770Z,50.15
2023-02-21T21:50:17.375Z,49.42
2023-02-21T21:52:58.163Z,49.41
2023-02-21T21:55:30.343Z,50.13
2023-02-21T21:57:58.874Z,50.28
2023-02-21T22:00:28.783Z,49.97
2023-02-21T22:03:02.166Z,49.37
2023-02-21T22:05:31.224Z,49.29
2023-02-21T22:07:58.955Z,48.69
2023-02-21T22:10:26.697Z,48.60
2023-02-21T22:12:56.730Z,48.40
2023-02-21T22:15:26.486Z,48.57
2023-02-21T22:17:54.479Z,48.82
2023-02-21T22:20:36.128Z,48.76
2023-02-21T22:23:05.659Z,47.92
2023-02-21T22:25:36.949Z,48.21
2023-02-21T22:28:09.616Z,48.97
2023-02-21T22:30:40.437Z,49.04
2023-02-21T22:33:13.502Z,50.24
2023-02-21T22:35:41.494Z,49.79
2023-02-21T22:38:14.382Z,50.34
2023-02-21T22:40:42.415Z,50.20
2023-02-21T22:43:09.959Z,50.72
2023-02-21T22:45:37.939Z,50.81
2023-02-21T22:48:07.657Z,50.54
2023-02-21T22:50:37.126Z,50.56
2023-02-21T22:53:08.388Z,51.39
2023-02-21T22:55:37.176Z,51.58
2023-02-21T22:58:07.268Z,51.27
2023-02-21T23:00:35.706Z,51.59
2023-02-21T23:03:15.670Z,52.07
2023-02-21T23:05:45.372Z,51.81
2023-02-21T23:08:18.096Z,51.69
2023-02-21T23:10:45.804Z,51.88
2023-02-21T23:13:19.737Z,51.69
2023-02-21T23:15:47.551Z,51.96
2023-02-21T23:18:20.582Z,51.84
2023-02-21T23:20:52.719Z,52.20
2023-02-21T23:23:25.972Z,52.28
2023-02-21T23:25:56.451Z,52.39
2023-02-21T23:28:23.292Z,52.64
2023-02-21T23:30:50.386Z,52.56
2023-02-21T23:33:23.088Z,52.69
2023-02-21T23:35:52.254Z,52.94
2023-02-21T23:38:22.674Z,54.10
2023-02-21T23:40:57.374Z,53.48
2023-02-21T23:43:29.230Z,53.81
2023-02-21T23:46:02.989Z,54.07
2023-02-21T23:48:30.030Z,54.47
2023-02-21T23:50:58.060Z,54.73
2023-02-21T23:53:27.689Z,55.12
2023-02-21T23:56:00.876Z,55.55
2023-02-21T23:58:31.601Z,56.23
